Time;durP1;ratioP1;P1;durP2;ratioP2;P2;SDS_P1;SDS_P2;PMS_P1;PMS_P2;Temp;Humidity;BMP_temperature;BMP_pressure;BME280_temperature;BME280_humidity;BME280_pressure;Samples;Min_cycle;Max_cycle;Signal;HPM_P1;HPM_P2
2024/01/09 00:00:59;;;;;;;;;22.50;21.00;;;;;3.80;66.70;100779.34;5120479;27;45482;-70
2024/01/09 00:03:24;;;;;;;;;25.25;18.25;;;;;3.82;66.73;100788.09;5120452;27;45803;-72
2024/01/09 00:05:50;;;;;;;;;15.00;12.50;;;;;3.58;66.93;100756.44;5120633;27;45293;-71
2024/01/09 00:08:15;;;;;;;;;22.75;19.00;;;;;3.70;66.87;100783.06;5119279;27;45537;-72
2024/01/09 00:10:41;;;;;;;;;18.75;15.25;;;;;3.69;67.65;100777.78;5120327;27;45718;-71
2024/01/09 00:13:07;;;;;;;;;19.25;16.25;;;;;3.51;67.12;100743.97;5120654;27;45325;-72
2024/01/09 00:15:32;;;;;;;;;20.75;17.50;;;;;3.70;67.10;100779.56;5120897;27;45470;-71
2024/01/09 00:17:58;;;;;;;;;19.25;15.00;;;;;3.71;67.13;100784.84;5120337;27;45417;-72
2024/01/09 00:20:24;;;;;;;;;18.50;17.00;;;;;3.42;66.69;100731.38;5120113;27;45454;-71
2024/01/09 00:22:51;;;;;;;;;11.00;8.75;;;;;3.66;66.74;100780.19;5120520;27;45303;-71
2024/01/09 00:25:18;;;;;;;;;26.00;23.25;;;;;3.45;67.30;100743.59;5121097;27;45456;-72
2024/01/09 00:27:44;;;;;;;;;22.25;20.75;;;;;3.61;66.97;100782.47;5120422;27;45272;-71
2024/01/09 00:30:11;;;;;;;;;23.00;22.00;;;;;3.58;66.55;100774.53;5120110;27;45360;-71
2024/01/09 00:32:37;;;;;;;;;19.25;18.00;;;;;3.57;66.63;100771.06;5120265;27;45320;-72
2024/01/09 00:35:03;;;;;;;;;18.25;15.50;;;;;3.54;66.65;100776.06;5120188;27;45561;-71
2024/01/09 00:37:29;;;;;;;;;14.50;10.50;;;;;3.35;66.82;100760.22;5119887;27;45453;-71
2024/01/09 00:39:54;;;;;;;;;35.75;31.50;;;;;3.24;67.28;100764.69;5119926;27;45507;-71
2024/01/09 00:42:20;;;;;;;;;30.00;27.25;;;;;3.11;67.17;100751.84;5120167;27;45300;-70
2024/01/09 00:44:45;;;;;;;;;26.50;23.50;;;;;3.39;67.05;100795.75;5120653;27;45494;-72
2024/01/09 00:47:11;;;;;;;;;33.00;31.00;;;;;3.36;66.98;100787.81;5119869;27;45258;-71
2024/01/09 00:49:37;;;;;;;;;25.25;24.00;;;;;3.39;67.38;100800.94;5119793;27;45254;-71
2024/01/09 00:52:03;;;;;;;;;18.25;15.75;;;;;3.26;66.81;100788.91;5118700;27;45432;-72
2024/01/09 00:54:28;;;;;;;;;17.75;15.75;;;;;3.12;67.94;100771.66;5120294;27;45359;-72
2024/01/09 00:56:54;;;;;;;;;11.50;9.50;;;;;3.26;67.65;100796.66;5118434;27;45472;-71
2024/01/09 00:59:20;;;;;;;;;18.50;17.00;;;;;3.22;67.91;100794.69;5119049;27;45450;-71
2024/01/09 01:01:50;;;;;;;;;18.00;15.50;;;;;3.08;67.68;100772.28;5120055;27;45313;-67
2024/01/09 01:04:16;;;;;;;;;14.50;10.50;;;;;3.21;68.15;100794.63;5120087;27;45490;-68
2024/01/09 01:06:43;;;;;;;;;14.25;11.25;;;;;2.99;67.97;100773.47;5119472;27;45310;-67
2024/01/09 01:09:09;;;;;;;;;11.25;8.50;;;;;2.98;67.53;100756.22;5119613;27;45422;-67
2024/01/09 01:11:35;;;;;;;;;7.25;6.50;;;;;3.16;67.65;100783.97;5119892;27;45320;-68
2024/01/09 01:14:00;;;;;;;;;9.75;8.25;;;;;2.95;68.02;100753.44;5119833;27;45420;-68
2024/01/09 01:16:26;;;;;;;;;9.25;8.00;;;;;3.09;67.82;100784.41;5118332;27;45846;-67
2024/01/09 01:18:52;;;;;;;;;10.50;10.50;;;;;3.05;67.87;100778.16;5119251;27;45484;-67
2024/01/09 01:21:17;;;;;;;;;8.00;8.00;;;;;3.09;67.99;100785.28;5119918;27;45477;-68
2024/01/09 01:23:43;;;;;;;;;11.75;8.25;;;;;3.10;67.90;100781.88;5119742;27;45171;-67
2024/01/09 01:26:08;;;;;;;;;7.75;7.75;;;;;3.12;67.83;100782.91;5119216;27;46135;-68
2024/01/09 01:28:34;;;;;;;;;6.50;6.50;;;;;3.18;68.22;100780.72;5119392;27;45232;-68
2024/01/09 01:31:00;;;;;;;;;11.00;7.25;;;;;3.15;68.00;100772.75;5119476;27;45446;-68
2024/01/09 01:33:26;;;;;;;;;14.00;11.25;;;;;3.05;67.91;100748.88;5119434;27;45423;-68
2024/01/09 01:35:51;;;;;;;;;13.75;11.00;;;;;3.24;68.05;100779.28;5119528;27;46135;-68
2024/01/09 01:38:18;;;;;;;;;10.75;8.75;;;;;3.19;68.06;100777.31;5117934;27;45253;-68
2024/01/09 01:40:43;;;;;;;;;13.00;11.75;;;;;3.16;67.61;100783.97;5119231;27;45332;-68
2024/01/09 01:43:09;;;;;;;;;18.50;15.25;;;;;3.15;67.77;100784.78;5119190;27;45405;-68
2024/01/09 01:45:35;;;;;;;;;16.75;15.75;;;;;3.11;68.00;100782.81;5118862;27;45957;-68
2024/01/09 01:48:02;;;;;;;;;17.75;13.25;;;;;3.10;68.01;100778.44;5118760;27;45382;-68
2024/01/09 01:50:30;;;;;;;;;17.50;14.00;;;;;2.92;67.59;100753.22;5119017;27;45791;-68
2024/01/09 01:52:58;;;;;;;;;18.50;15.25;;;;;3.08;67.52;100777.44;5119231;27;45260;-68
2024/01/09 01:55:25;;;;;;;;;25.25;22.00;;;;;3.06;67.88;100789.34;5118904;27;45648;-68
2024/01/09 01:57:54;;;;;;;;;26.50;20.50;;;;;3.03;67.38;100781.44;5118979;27;45489;-68
2024/01/09 02:00:21;;;;;;;;;37.75;34.25;;;;;3.00;67.81;100792.44;5119167;27;45563;-68
2024/01/09 02:02:50;;;;;;;;;25.25;23.50;;;;;2.94;67.70;100790.34;5118870;27;45424;-68
2024/01/09 02:05:22;;;;;;;;;12.75;11.00;;;;;2.79;67.69;100781.63;5118703;27;46198;-68
2024/01/09 02:07:50;;;;;;;;;22.75;16.00;;;;;2.90;68.45;100801.25;5118513;27;45315;-68
2024/01/09 02:10:19;;;;;;;;;21.75;15.00;;;;;2.85;67.95;100791.47;5118571;27;45494;-68
2024/01/09 02:12:46;;;;;;;;;11.75;8.75;;;;;2.92;67.68;100806.53;5118892;27;45444;-68
2024/01/09 02:15:11;;;;;;;;;13.50;11.00;;;;;2.90;67.97;100800.38;5118453;27;45954;-68
2024/01/09 02:21:04;;;;;;;;;16.50;15.25;;;;;2.87;67.18;100798.50;5118499;27;45249;-68
2024/01/09 02:23:30;;;;;;;;;15.25;14.00;;;;;2.86;67.08;100808.72;5118755;27;45537;-72
2024/01/09 02:25:57;;;;;;;;;22.75;20.00;;;;;2.85;67.51;100797.50;5118306;27;45374;-71
2024/01/09 02:28:31;;;;;;;;;20.75;18.25;;;;;2.85;67.42;100804.38;5118713;27;45439;-72
2024/01/09 02:30:57;;;;;;;;;23.25;20.00;;;;;2.80;67.45;100796.31;5118388;27;45530;-71
2024/01/09 02:33:24;;;;;;;;;18.25;17.00;;;;;2.75;67.85;100796.00;5119091;27;45523;-72
2024/01/09 02:35:49;;;;;;;;;23.25;20.25;;;;;2.55;68.56;100766.34;5118207;27;45367;-72
2024/01/09 02:38:15;;;;;;;;;15.00;13.00;;;;;2.69;67.74;100792.16;5118385;27;45206;-73
2024/01/09 02:40:41;;;;;;;;;13.50;10.50;;;;;2.72;67.70;100805.22;5118472;27;45326;-72
2024/01/09 02:43:07;;;;;;;;;14.00;12.75;;;;;2.43;67.43;100756.91;5118678;27;45340;-72
2024/01/09 02:45:33;;;;;;;;;9.25;7.25;;;;;2.40;67.30;100757.59;5118147;27;45436;-71
2024/01/09 02:47:59;;;;;;;;;11.00;10.00;;;;;2.67;67.87;100811.78;5118113;27;45467;-73
2024/01/09 02:50:25;;;;;;;;;9.50;9.00;;;;;2.65;67.39;100819.44;5118175;27;45413;-72
2024/01/09 02:52:50;;;;;;;;;11.00;9.50;;;;;2.61;67.94;100812.28;5118457;27;45500;-72
2024/01/09 02:55:16;;;;;;;;;11.00;10.25;;;;;2.55;67.65;100809.31;5118012;27;45856;-72
2024/01/09 02:57:41;;;;;;;;;13.50;10.75;;;;;2.38;67.69;100790.13;5118055;27;45363;-72
2024/01/09 03:00:08;;;;;;;;;13.75;12.25;;;;;2.41;68.08;100795.50;5118391;27;45315;-73
2024/01/09 03:02:35;;;;;;;;;16.50;14.00;;;;;2.39;67.72;100797.06;5117085;27;45231;-72
2024/01/09 03:05:01;;;;;;;;;12.75;10.00;;;;;2.21;68.01;100760.66;5117966;27;46354;-72
2024/01/09 03:07:27;;;;;;;;;18.25;14.25;;;;;2.31;67.75;100775.06;5118237;27;45220;-73
2024/01/09 03:09:53;;;;;;;;;8.25;7.00;;;;;2.15;67.67;100747.38;5118583;27;45770;-72
2024/01/09 03:12:18;;;;;;;;;16.50;13.50;;;;;2.40;67.89;100804.00;5118216;27;45521;-72
2024/01/09 03:14:44;;;;;;;;;16.00;13.25;;;;;2.36;67.72;100799.44;5117627;27;46087;-72
2024/01/09 03:17:10;;;;;;;;;15.25;12.25;;;;;2.07;67.96;100764.88;5117722;27;45514;-72
2024/01/09 03:19:36;;;;;;;;;16.25;10.00;;;;;2.20;68.73;100797.50;5117953;27;45487;-73
2024/01/09 03:22:03;;;;;;;;;10.00;8.00;;;;;2.03;68.79;100780.94;5119769;27;45421;-73
2024/01/09 03:24:29;;;;;;;;;8.00;8.00;;;;;2.10;68.36;100793.41;5122224;27;46516;-71
2024/01/09 03:26:55;;;;;;;;;11.00;9.00;;;;;2.08;68.63;100792.41;5122690;27;45312;-72
2024/01/09 03:29:20;;;;;;;;;8.50;8.00;;;;;2.08;68.88;100783.81;5120831;27;45557;-73
2024/01/09 03:31:46;;;;;;;;;5.50;5.00;;;;;2.05;69.08;100778.44;5122426;27;45364;-73
2024/01/09 03:34:12;;;;;;;;;8.75;6.00;;;;;2.06;68.32;100788.84;5121720;27;45492;-73
2024/01/09 03:36:41;;;;;;;;;11.50;8.00;;;;;1.75;69.01;100737.84;5122054;27;45191;-73
2024/01/09 03:39:09;;;;;;;;;10.50;8.50;;;;;2.04;68.40;100780.13;5121551;27;45364;-73
2024/01/09 03:41:35;;;;;;;;;12.00;7.00;;;;;1.84;68.57;100740.13;5120363;27;45581;-72
2024/01/09 03:44:00;;;;;;;;;10.50;10.00;;;;;2.07;69.10;100772.63;5119719;27;46572;-72
2024/01/09 03:46:26;;;;;;;;;11.00;8.00;;;;;2.09;68.88;100773.59;5121310;27;45218;-73
2024/01/09 03:48:51;;;;;;;;;7.75;7.00;;;;;2.11;69.53;100772.03;5120983;27;45251;-72
2024/01/09 03:51:17;;;;;;;;;9.00;7.75;;;;;2.05;69.64;100760.38;5121198;27;45282;-73
2024/01/09 03:53:43;;;;;;;;;7.50;5.00;;;;;2.09;69.23;100771.03;5121174;27;46306;-73
2024/01/09 03:56:08;;;;;;;;;11.00;7.00;;;;;2.09;69.38;100765.88;5121724;27;45343;-72
2024/01/09 03:58:34;;;;;;;;;6.00;5.00;;;;;1.61;68.86;100668.13;5121502;27;45209;-70
2024/01/09 04:00:59;;;;;;;;;7.00;6.50;;;;;2.13;69.01;100747.25;5121957;27;45223;-68
2024/01/09 04:03:26;;;;;;;;;5.25;5.25;;;;;2.16;68.90;100747.44;5121223;27;45976;-68
2024/01/09 04:05:52;;;;;;;;;12.00;8.00;;;;;2.21;69.04;100742.63;5120880;27;45243;-72
2024/01/09 04:08:17;;;;;;;;;8.75;8.25;;;;;2.14;68.19;100733.56;5121151;27;45484;-73
2024/01/09 04:10:43;;;;;;;;;8.00;7.50;;;;;2.14;67.99;100733.56;5121107;27;45490;-72
2024/01/09 04:13:09;;;;;;;;;10.75;10.75;;;;;2.12;68.47;100723.94;5120606;27;46239;-74
2024/01/09 04:15:34;;;;;;;;;14.75;14.25;;;;;2.23;69.06;100743.59;5120741;27;45511;-72
2024/01/09 04:18:01;;;;;;;;;6.75;6.50;;;;;2.26;68.92;100748.06;5121309;27;45304;-72
2024/01/09 04:20:27;;;;;;;;;12.50;8.50;;;;;1.98;68.40;100694.69;5121134;27;45393;-73
2024/01/09 04:22:52;;;;;;;;;11.50;9.00;;;;;2.29;68.55;100755.97;5120892;27;46044;-72
2024/01/09 04:25:18;;;;;;;;;10.00;7.25;;;;;2.19;68.71;100729.63;5120716;27;45554;-73
2024/01/09 04:27:44;;;;;;;;;10.00;8.00;;;;;2.28;68.67;100746.47;5120719;27;45241;-73
2024/01/09 04:30:10;;;;;;;;;10.00;10.00;;;;;2.36;68.88;100764.22;5121237;27;45268;-71
2024/01/09 04:32:36;;;;;;;;;5.00;4.00;;;;;2.33;68.17;100758.00;5119763;27;45374;-73
2024/01/09 04:35:02;;;;;;;;;9.50;9.00;;;;;2.27;68.60;100742.09;5120963;27;45262;-72
2024/01/09 04:37:28;;;;;;;;;9.50;8.00;;;;;2.24;68.31;100744.50;5121397;27;45425;-72
2024/01/09 04:39:53;;;;;;;;;7.00;7.00;;;;;2.19;68.11;100745.09;5120718;27;45243;-72
2024/01/09 04:42:19;;;;;;;;;7.75;7.75;;;;;2.09;67.96;100734.03;5120276;27;45495;-73
2024/01/09 04:44:45;;;;;;;;;8.00;6.50;;;;;2.10;68.40;100741.88;5120815;27;45350;-72
2024/01/09 04:47:15;;;;;;;;;4.25;4.00;;;;;2.04;68.31;100740.59;5120797;27;45488;-72
2024/01/09 04:49:44;;;;;;;;;9.00;8.00;;;;;2.06;68.90;100744.16;5120935;27;45478;-72
2024/01/09 04:52:09;;;;;;;;;10.00;10.00;;;;;2.10;68.53;100754.75;5120654;27;46205;-72
2024/01/09 04:54:35;;;;;;;;;13.00;11.00;;;;;2.14;68.52;100758.44;5120331;27;45259;-72
2024/01/09 04:57:01;;;;;;;;;8.00;8.00;;;;;2.11;68.78;100742.75;5119446;27;45521;-72
2024/01/09 04:59:26;;;;;;;;;10.75;7.75;;;;;2.11;68.36;100740.19;5120492;27;45486;-72
2024/01/09 05:01:52;;;;;;;;;7.00;5.00;;;;;2.22;68.36;100749.53;5120905;27;46000;-74
2024/01/09 05:04:18;;;;;;;;;12.00;8.25;;;;;2.15;68.21;100716.44;5120572;27;45520;-73
2024/01/09 05:06:45;;;;;;;;;6.50;5.00;;;;;2.07;68.19;100704.69;5119197;27;45466;-72
2024/01/09 05:09:11;;;;;;;;;7.00;5.50;;;;;2.24;68.15;100740.22;5120810;27;45567;-72
2024/01/09 05:11:37;;;;;;;;;11.00;10.00;;;;;2.25;68.33;100738.53;5119934;27;46261;-73
2024/01/09 05:14:02;;;;;;;;;8.00;8.00;;;;;2.13;68.25;100729.22;5120051;27;45485;-72
2024/01/09 05:16:28;;;;;;;;;11.50;9.75;;;;;2.16;67.42;100751.72;5119541;27;45327;-68
2024/01/09 05:18:54;;;;;;;;;12.50;10.00;;;;;2.10;67.98;100756.44;5119855;27;45255;-68
2024/01/09 05:21:20;;;;;;;;;11.50;10.75;;;;;2.05;67.95;100763.88;5119327;27;45417;-68
2024/01/09 05:23:46;;;;;;;;;10.00;9.00;;;;;2.05;67.88;100761.31;5119161;27;45299;-68
2024/01/09 05:26:11;;;;;;;;;7.00;4.75;;;;;2.04;67.55;100758.63;5119208;27;45195;-68
2024/01/09 05:28:37;;;;;;;;;10.75;8.00;;;;;2.03;67.95;100759.41;5119264;27;45489;-69
2024/01/09 05:31:03;;;;;;;;;10.00;9.50;;;;;2.03;68.25;100760.31;5117524;27;45933;-72
2024/01/09 05:33:29;;;;;;;;;14.50;10.75;;;;;2.10;68.56;100759.91;5118696;27;45540;-72
2024/01/09 05:35:55;;;;;;;;;7.50;7.25;;;;;2.12;68.40;100753.19;5118508;27;45465;-68
2024/01/09 05:38:20;;;;;;;;;10.00;8.00;;;;;2.17;68.45;100749.25;5118789;27;45546;-72
2024/01/09 05:40:46;;;;;;;;;21.75;18.25;;;;;2.23;68.28;100753.91;5118282;27;45513;-73
2024/01/09 05:43:12;;;;;;;;;14.00;13.00;;;;;2.29;68.58;100748.25;5118265;27;46056;-68
2024/01/09 05:45:38;;;;;;;;;6.50;6.50;;;;;2.30;69.25;100768.09;5118643;27;46223;-68
2024/01/09 05:48:04;;;;;;;;;5.00;5.00;;;;;2.35;68.91;100769.31;5119583;27;45285;-68
2024/01/09 05:50:30;;;;;;;;;10.00;6.00;;;;;2.44;69.33;100774.16;5118741;27;45304;-68
2024/01/09 05:52:55;;;;;;;;;8.50;7.50;;;;;2.47;68.83;100762.38;5118372;27;45570;-67
2024/01/09 05:55:21;;;;;;;;;11.00;10.25;;;;;2.54;68.90;100766.25;5118658;27;45373;-68
2024/01/09 05:57:47;;;;;;;;;13.00;12.00;;;;;2.59;68.69;100759.72;5119256;27;45480;-68
2024/01/09 06:00:13;;;;;;;;;12.00;8.50;;;;;2.64;67.96;100734.19;5118662;27;45222;-68
2024/01/09 06:02:39;;;;;;;;;10.75;8.50;;;;;2.66;68.22;100723.19;5118730;27;45229;-68
2024/01/09 06:05:05;;;;;;;;;13.25;8.00;;;;;2.65;67.96;100718.84;5119234;27;45481;-72
2024/01/09 06:07:31;;;;;;;;;14.75;13.50;;;;;2.61;67.91;100722.00;5119033;27;45516;-67
2024/01/09 06:09:56;;;;;;;;;11.50;10.00;;;;;2.55;67.34;100716.47;5118650;27;45409;-69
2024/01/09 06:12:22;;;;;;;;;10.00;9.00;;;;;2.55;67.93;100725.09;5118675;27;45479;-72
2024/01/09 06:14:48;;;;;;;;;14.25;10.00;;;;;2.50;67.69;100731.63;5118463;27;45415;-68
2024/01/09 06:17:14;;;;;;;;;9.00;8.00;;;;;2.43;67.82;100721.72;5118708;27;45466;-72
2024/01/09 06:19:39;;;;;;;;;8.00;7.00;;;;;2.23;67.43;100699.78;5118583;27;45318;-68
2024/01/09 06:22:05;;;;;;;;;14.50;13.50;;;;;2.29;67.30;100723.38;5117545;27;45314;-68
2024/01/09 06:24:31;;;;;;;;;16.75;14.25;;;;;2.22;67.42;100731.50;5118647;27;45371;-69
2024/01/09 06:26:56;;;;;;;;;11.00;10.00;;;;;2.18;68.28;100739.81;5118661;27;45326;-72
2024/01/09 06:29:22;;;;;;;;;17.00;13.00;;;;;2.13;68.42;100738.59;5118055;27;45480;-71
2024/01/09 06:31:48;;;;;;;;;14.25;13.00;;;;;2.17;68.06;100753.50;5118137;27;45346;-69
2024/01/09 06:34:14;;;;;;;;;11.25;10.50;;;;;2.13;67.79;100762.72;5118145;27;45528;-72
2024/01/09 06:36:40;;;;;;;;;14.00;12.50;;;;;1.99;68.03;100750.59;5118454;27;45511;-68
2024/01/09 06:39:05;;;;;;;;;29.50;27.00;;;;;2.00;68.01;100760.09;5118522;27;45533;-72
2024/01/09 06:41:31;;;;;;;;;56.50;42.25;;;;;2.00;67.86;100767.81;5118186;27;45323;-72
2024/01/09 06:43:57;;;;;;;;;112.00;85.67;;;;;1.99;68.11;100768.63;5118421;27;45299;-71
2024/01/09 06:46:22;;;;;;;;;64.00;52.50;;;;;1.12;69.09;100619.38;5118409;27;45517;-70
2024/01/09 06:48:48;;;;;;;;;19.75;18.00;;;;;1.94;68.51;100763.13;5118160;27;45966;-72
2024/01/09 06:51:14;;;;;;;;;18.75;16.50;;;;;1.96;68.69;100763.25;5117925;27;45519;-72
2024/01/09 06:53:39;;;;;;;;;36.00;31.00;;;;;1.86;68.88;100751.44;5118454;27;45388;-72
2024/01/09 06:56:06;;;;;;;;;33.00;30.00;;;;;1.68;68.57;100725.31;5119130;27;45274;-71
2024/01/09 06:58:31;;;;;;;;;31.25;27.75;;;;;1.95;68.57;100761.44;5121543;27;46034;-71
2024/01/09 07:00:57;;;;;;;;;11.75;10.50;;;;;1.88;68.92;100774.72;5121507;27;45363;-69
2024/01/09 07:03:24;;;;;;;;;8.00;7.25;;;;;1.82;68.66;100766.59;5121666;27;45473;-72
2024/01/09 07:05:49;;;;;;;;;12.25;10.50;;;;;1.51;68.47;100710.38;5121557;27;45551;-70
2024/01/09 07:08:15;;;;;;;;;11.75;9.50;;;;;1.85;68.45;100772.84;5121350;27;45865;-71
2024/01/09 07:10:41;;;;;;;;;18.25;15.75;;;;;1.86;68.66;100778.88;5121181;27;45309;-68
2024/01/09 07:13:07;;;;;;;;;18.25;15.75;;;;;1.84;68.97;100781.34;5120903;27;45329;-72
2024/01/09 07:15:32;;;;;;;;;14.25;11.75;;;;;1.82;68.49;100771.72;5121101;27;45582;-72
2024/01/09 07:17:58;;;;;;;;;38.75;31.00;;;;;1.77;68.28;100768.81;5120325;27;45405;-72
2024/01/09 07:20:23;;;;;;;;;25.00;22.25;;;;;1.82;68.68;100782.03;5120680;27;45443;-72
2024/01/09 07:22:49;;;;;;;;;33.00;30.00;;;;;1.82;68.97;100779.47;5121425;27;45387;-72
2024/01/09 07:25:15;;;;;;;;;31.50;29.75;;;;;1.79;68.79;100783.63;5119941;27;45394;-72
2024/01/09 07:27:41;;;;;;;;;36.00;31.25;;;;;1.86;69.00;100794.34;5121213;27;45502;-71
2024/01/09 07:30:07;;;;;;;;;13.75;12.50;;;;;1.88;69.13;100811.69;5121376;27;45329;-71
2024/01/09 07:32:33;;;;;;;;;25.50;22.75;;;;;1.89;68.87;100809.97;5120861;27;45504;-72
2024/01/09 07:35:00;;;;;;;;;19.25;19.25;;;;;1.92;68.42;100817.94;5120601;27;45431;-69
2024/01/09 07:37:25;;;;;;;;;12.75;11.75;;;;;1.95;68.83;100824.19;5120082;27;45641;-72
2024/01/09 07:39:52;;;;;;;;;7.50;5.25;;;;;1.98;68.67;100820.94;5120162;27;45582;-72
2024/01/09 07:42:17;;;;;;;;;13.00;11.75;;;;;2.00;68.53;100819.34;5119973;27;45508;-69
2024/01/09 07:44:43;;;;;;;;;10.75;10.00;;;;;2.00;68.60;100827.09;5120339;27;45751;-68
2024/01/09 07:47:11;;;;;;;;;20.50;19.00;;;;;1.92;68.21;100831.72;5120120;27;45378;-68
2024/01/09 07:49:37;;;;;;;;;13.75;11.50;;;;;1.92;68.62;100836.84;5120144;27;45321;-68
2024/01/09 07:52:03;;;;;;;;;22.50;19.50;;;;;1.92;68.64;100829.13;5117355;27;45383;-68
2024/01/09 07:54:29;;;;;;;;;31.25;21.50;;;;;1.89;68.15;100821.22;5120205;27;45342;-71
2024/01/09 07:56:54;;;;;;;;;16.00;15.00;;;;;1.89;68.31;100826.34;5119854;27;45974;-70
2024/01/09 07:59:20;;;;;;;;;23.00;21.75;;;;;1.91;68.93;100816.13;5119928;27;45278;-68
2024/01/09 08:01:51;;;;;;;;;51.25;44.50;;;;;1.93;68.91;100820.63;5119903;27;45428;-72
2024/01/09 08:04:16;;;;;;;;;46.25;40.25;;;;;1.97;68.65;100814.00;5120161;27;45359;-71
2024/01/09 08:06:42;;;;;;;;;76.67;62.33;;;;;2.02;68.91;100814.31;5119924;27;45404;-68
2024/01/09 08:09:07;;;;;;;;;36.25;34.25;;;;;2.04;68.22;100810.16;5120358;27;45549;-73
2024/01/09 08:11:33;;;;;;;;;48.25;40.50;;;;;2.05;68.39;100814.50;5120212;27;45366;-68
2024/01/09 08:13:58;;;;;;;;;29.00;25.00;;;;;2.01;68.32;100815.09;5120872;27;45488;-68
2024/01/09 08:16:24;;;;;;;;;31.50;24.00;;;;;2.02;68.22;100822.03;5120432;27;45374;-68
2024/01/09 08:18:50;;;;;;;;;31.25;29.25;;;;;2.04;68.46;100817.88;5120293;27;45346;-71
2024/01/09 08:21:16;;;;;;;;;41.00;38.50;;;;;1.16;68.44;100653.13;5120468;27;45375;-68
2024/01/09 08:23:41;;;;;;;;;73.67;59.67;;;;;2.09;68.94;100814.84;5120919;27;45456;-66
2024/01/09 08:26:07;;;;;;;;;72.00;58.33;;;;;2.14;68.69;100815.16;5120056;27;45940;-72
2024/01/09 08:28:33;;;;;;;;;80.00;62.67;;;;;1.88;68.71;100761.84;5120231;27;45398;-70
2024/01/09 08:30:59;;;;;;;;;59.75;49.75;;;;;2.21;69.20;100811.28;5119562;27;45614;-71
2024/01/09 08:33:24;;;;;;;;;49.75;39.25;;;;;2.29;68.78;100811.03;5120229;27;45599;-72
2024/01/09 08:35:50;;;;;;;;;44.25;38.25;;;;;2.33;68.92;100807.88;5118659;27;45468;-67
2024/01/09 08:38:18;;;;;;;;;76.67;62.00;;;;;2.36;69.04;100813.22;5119575;27;45495;-71
2024/01/09 08:40:44;;;;;;;;;76.67;61.00;;;;;2.38;68.93;100823.63;5119584;27;45434;-71
2024/01/09 08:43:10;;;;;;;;;71.33;56.33;;;;;2.32;68.84;100811.22;5119706;27;45427;-72
2024/01/09 08:45:37;;;;;;;;;47.25;43.00;;;;;2.37;68.43;100814.13;5118685;27;45500;-72
2024/01/09 08:48:03;;;;;;;;;31.50;30.25;;;;;2.27;68.59;100799.72;5118596;27;45421;-72
2024/01/09 08:50:28;;;;;;;;;26.25;23.00;;;;;2.52;68.22;100840.91;5119082;27;45431;-71
2024/01/09 08:52:54;;;;;;;;;31.25;27.50;;;;;2.55;68.27;100851.44;5119334;27;45367;-71
2024/01/09 08:55:20;;;;;;;;;58.50;49.50;;;;;2.56;68.38;100855.78;5118682;27;45530;-72
2024/01/09 08:57:46;;;;;;;;;49.00;42.75;;;;;2.55;68.57;100853.16;5119059;27;45494;-70
2024/01/09 09:00:13;;;;;;;;;20.00;18.25;;;;;2.66;68.66;100869.31;5120044;27;45474;-71
2024/01/09 09:02:38;;;;;;;;;11.00;10.75;;;;;2.66;68.76;100862.47;5120192;27;45557;-72
2024/01/09 09:05:05;;;;;;;;;7.00;6.50;;;;;2.69;68.57;100860.09;5119745;27;45317;-67
2024/01/09 09:07:30;;;;;;;;;4.50;4.00;;;;;2.49;68.15;100829.53;5119713;27;45259;-71
2024/01/09 09:09:56;;;;;;;;;6.50;6.50;;;;;2.70;68.68;100861.88;5119682;27;45428;-71
2024/01/09 09:12:22;;;;;;;;;10.50;9.25;;;;;2.78;68.60;100854.66;5118151;27;45490;-72
2024/01/09 09:14:48;;;;;;;;;17.25;14.25;;;;;2.87;68.67;100849.22;5118844;27;45452;-71
2024/01/09 09:17:14;;;;;;;;;13.75;13.50;;;;;2.93;68.85;100845.34;5119197;27;45344;-68
2024/01/09 09:19:39;;;;;;;;;17.50;16.50;;;;;2.98;68.31;100841.38;5118164;27;45485;-68
2024/01/09 09:22:05;;;;;;;;;18.75;15.25;;;;;3.05;68.55;100852.09;5119379;27;45497;-68
2024/01/09 09:24:30;;;;;;;;;11.75;11.75;;;;;3.14;68.91;100863.00;5118948;27;45480;-68
2024/01/09 09:26:56;;;;;;;;;11.75;11.00;;;;;3.08;68.48;100839.38;5118627;27;45335;-68
2024/01/09 09:29:22;;;;;;;;;14.25;14.25;;;;;3.11;68.67;100825.00;5111512;27;45492;-72
2024/01/09 09:31:47;;;;;;;;;16.75;14.50;;;;;4.21;73.18;100855.91;5099069;27;45561;-72
2024/01/09 09:34:13;;;;;;;;;15.25;14.75;;;;;5.95;68.51;100861.53;5098594;27;45282;-70
2024/01/09 09:36:39;;;;;;;;;20.50;17.75;;;;;7.28;63.65;100844.84;5098362;27;45500;-71
2024/01/09 09:39:04;;;;;;;;;22.00;18.00;;;;;8.18;61.58;100840.31;5098110;27;45439;-71
2024/01/09 09:41:32;;;;;;;;;18.25;14.75;;;;;9.02;56.85;100839.56;5098451;27;45583;-72
2024/01/09 09:43:58;;;;;;;;;26.00;23.50;;;;;9.51;57.83;100838.88;5098114;27;45708;-71
2024/01/09 09:46:30;;;;;;;;;21.25;18.00;;;;;9.76;53.86;100806.81;5098252;27;45443;-72
2024/01/09 09:48:56;;;;;;;;;13.00;11.75;;;;;10.28;56.27;100841.75;5098208;27;45469;-72
2024/01/09 09:51:23;;;;;;;;;16.00;15.00;;;;;10.59;55.64;100827.22;5098225;27;45336;-71
2024/01/09 09:53:51;;;;;;;;;9.00;8.50;;;;;10.78;51.00;100820.88;5098346;27;45389;-68
2024/01/09 09:56:16;;;;;;;;;14.00;11.75;;;;;10.87;51.49;100829.91;5098435;27;45358;-72
2024/01/09 09:58:42;;;;;;;;;18.25;17.00;;;;;10.75;51.96;100801.66;5096748;27;45397;-72
2024/01/09 10:01:12;;;;;;;;;41.75;37.50;;;;;10.88;51.10;100825.56;5098373;27;45590;-72
2024/01/09 10:03:55;;;;;;;;;33.00;28.75;;;;;10.62;52.00;100788.13;5098047;27;46077;-73
2024/01/09 10:06:22;;;;;;;;;22.00;21.00;;;;;10.79;50.31;100839.22;5098205;27;45354;-71
2024/01/09 10:08:51;;;;;;;;;14.75;11.75;;;;;10.59;50.55;100824.59;5098326;27;45539;-72
2024/01/09 10:11:17;;;;;;;;;15.25;14.00;;;;;10.58;50.33;100846.31;5097222;27;45547;-72
2024/01/09 10:13:43;;;;;;;;;15.00;15.00;;;;;10.48;50.89;100842.50;5097976;27;45325;-72
2024/01/09 10:16:09;;;;;;;;;9.75;9.75;;;;;10.46;51.67;100845.06;5097978;27;45452;-71
2024/01/09 10:18:35;;;;;;;;;8.25;8.00;;;;;9.62;52.41;100706.31;5110396;27;45422;-72
2024/01/09 10:21:02;;;;;;;;;10.75;10.00;;;;;10.42;52.05;100839.69;5118876;27;45455;-67
2024/01/09 10:23:29;;;;;;;;;13.00;11.00;;;;;10.35;51.72;100830.75;5118456;27;45411;-69
2024/01/09 10:25:54;;;;;;;;;9.00;8.25;;;;;10.33;51.39;100842.88;5118397;27;45471;-69
2024/01/09 10:28:21;;;;;;;;;9.25;8.50;;;;;10.34;52.88;100844.63;5117293;27;45604;-71
2024/01/09 10:30:47;;;;;;;;;12.50;11.75;;;;;10.39;51.64;100840.47;5118708;27;45348;-69
2024/01/09 10:33:14;;;;;;;;;13.25;12.00;;;;;10.36;50.09;100840.34;5118125;27;45499;-73
2024/01/09 10:35:41;;;;;;;;;12.00;12.00;;;;;10.23;50.05;100851.19;5116919;27;45357;-72
2024/01/09 10:38:09;;;;;;;;;14.75;13.50;;;;;10.22;51.52;100859.81;5118298;27;45855;-69
2024/01/09 10:40:35;;;;;;;;;15.00;14.50;;;;;10.05;51.97;100847.06;5117912;27;45300;-69
2024/01/09 10:43:01;;;;;;;;;11.00;10.75;;;;;10.05;52.16;100862.72;5117893;27;45368;-68
2024/01/09 10:45:27;;;;;;;;;10.00;10.00;;;;;9.98;52.79;100855.47;5117784;27;45263;-68
2024/01/09 10:47:54;;;;;;;;;10.25;9.00;;;;;9.80;52.08;100852.19;5117607;27;45457;-69
2024/01/09 10:50:24;;;;;;;;;10.00;9.25;;;;;9.63;52.63;100851.53;5118228;27;45467;-68
2024/01/09 10:52:50;;;;;;;;;11.25;11.25;;;;;9.44;53.12;100840.38;5118082;27;46235;-70
2024/01/09 10:55:18;;;;;;;;;10.50;10.50;;;;;9.65;53.32;100855.06;5106759;27;45427;-70
2024/01/09 10:57:46;;;;;;;;;11.50;11.50;;;;;9.75;53.63;100847.69;5099280;27;45441;-72
2024/01/09 11:00:12;;;;;;;;;13.50;10.50;;;;;9.92;53.00;100856.13;5117126;27;45712;-71
2024/01/09 11:02:41;;;;;;;;;8.50;7.00;;;;;10.04;53.41;100842.66;5116662;27;45676;-69
2024/01/09 11:05:10;;;;;;;;;13.50;12.75;;;;;10.20;53.42;100844.09;5117128;27;45423;-74
2024/01/09 11:07:37;;;;;;;;;10.00;9.00;;;;;10.26;53.40;100814.72;5117311;27;45485;-74
2024/01/09 11:10:04;;;;;;;;;14.25;10.00;;;;;10.27;52.39;100811.28;5117557;27;45313;-74
2024/01/09 11:12:43;;;;;;;;;11.00;10.00;;;;;10.39;52.08;100832.63;5117437;27;45456;-72
2024/01/09 11:15:25;;;;;;;;;14.00;12.00;;;;;10.35;53.39;100823.78;5114658;27;46235;-69
2024/01/09 11:17:56;;;;;;;;;15.00;15.00;;;;;10.54;53.43;100827.94;5117322;27;45776;-69